Time;durP1;ratioP1;P1;durP2;ratioP2;P2;SDS_P1;SDS_P2;PMS_P1;PMS_P2;Temp;Humidity;BMP_temperature;BMP_pressure;BME280_temperature;BME280_humidity;BME280_pressure;Samples;Min_cycle;Max_cycle;Signal;HPM_P1;HPM_P2
2022/07/31 00:00:23;;;;;;;7.20;3.80;;;18.60;99.90;;;;;;5005779;28;20121;-53
2022/07/31 00:02:48;;;;;;;5.07;3.92;;;18.60;99.90;;;;;;4987934;28;20134;-50
2022/07/31 00:05:14;;;;;;;6.55;3.90;;;18.60;99.90;;;;;;4998348;28;20045;-50
2022/07/31 00:07:40;;;;;;;6.30;3.58;;;18.50;99.90;;;;;;5005752;28;20030;-48
2022/07/31 00:10:06;;;;;;;6.05;3.70;;;18.50;99.90;;;;;;5002906;28;20037;-50
2022/07/31 00:12:33;;;;;;;5.28;3.92;;;18.50;99.90;;;;;;4983483;28;20034;-49
2022/07/31 00:15:00;;;;;;;5.38;3.70;;;;;;;;;;5006411;28;20041;-46
2022/07/31 00:17:26;;;;;;;5.00;3.67;;;18.50;99.90;;;;;;5006238;28;20048;-47
2022/07/31 00:19:51;;;;;;;5.72;4.03;;;18.50;99.90;;;;;;5001291;28;20302;-51
2022/07/31 00:22:17;;;;;;;4.63;3.58;;;18.50;99.90;;;;;;5005082;28;20120;-49
2022/07/31 00:24:42;;;;;;;3.50;3.10;;;18.50;99.90;;;;;;5007507;28;20046;-48
2022/07/31 00:27:09;;;;;;;6.25;3.88;;;18.50;99.90;;;;;;4999269;28;20077;-50
2022/07/31 00:29:35;;;;;;;4.35;3.78;;;18.50;99.90;;;;;;5008313;28;20054;-47
2022/07/31 00:32:01;;;;;;;4.72;3.70;;;18.50;99.90;;;;;;5004686;28;20076;-47
2022/07/31 00:34:27;;;;;;;4.03;3.38;;;18.50;99.90;;;;;;5004243;28;20062;-47
2022/07/31 00:36:52;;;;;;;6.95;3.78;;;18.40;99.90;;;;;;5000051;28;20097;-48
2022/07/31 00:39:18;;;;;;;4.45;3.38;;;18.40;99.90;;;;;;5003303;28;20045;-48
2022/07/31 00:41:44;;;;;;;4.40;3.75;;;18.30;99.90;;;;;;5003888;28;20053;-48
2022/07/31 00:44:12;;;;;;;14.32;4.07;;;18.40;99.90;;;;;;5007509;28;20046;-46
2022/07/31 00:46:37;;;;;;;3.90;3.50;;;18.40;99.90;;;;;;4985119;28;20405;-48
2022/07/31 00:49:06;;;;;;;4.95;3.80;;;18.40;99.90;;;;;;5006648;28;20046;-51
2022/07/31 00:51:31;;;;;;;4.53;3.65;;;18.40;99.90;;;;;;5003165;28;20045;-46
2022/07/31 00:53:57;;;;;;;4.05;3.65;;;18.40;99.90;;;;;;5000400;28;20411;-50
2022/07/31 00:56:24;;;;;;;6.53;3.95;;;18.30;99.90;;;;;;5003137;28;20397;-46
2022/07/31 00:58:50;;;;;;;6.32;3.90;;;18.30;99.90;;;;;;5003293;28;20043;-48
2022/07/31 01:01:15;;;;;;;4.60;4.03;;;18.40;99.90;;;;;;4988324;28;20046;-49
2022/07/31 01:03:41;;;;;;;4.50;3.60;;;18.30;99.90;;;;;;5002970;28;20092;-48
2022/07/31 01:06:07;;;;;;;4.70;4.03;;;18.30;99.90;;;;;;5001569;28;20062;-48
2022/07/31 01:08:32;;;;;;;4.57;3.90;;;18.20;99.90;;;;;;5006237;28;20033;-51
2022/07/31 01:11:07;;;;;;;6.03;3.90;;;18.20;99.90;;;;;;4958248;28;20065;-49
2022/07/31 01:13:40;;;;;;;3.90;3.45;;;18.10;99.90;;;;;;5003071;28;20052;-47
2022/07/31 01:16:08;;;;;;;4.85;3.78;;;18.00;99.90;;;;;;5001455;28;20042;-48
2022/07/31 01:18:35;;;;;;;4.22;3.80;;;18.00;99.90;;;;;;5007095;28;20045;-47
2022/07/31 01:21:06;;;;;;;5.05;4.13;;;18.00;99.90;;;;;;5001342;28;20038;-48
2022/07/31 01:23:43;;;;;;;6.97;4.00;;;17.90;99.90;;;;;;4999158;28;20053;-47
2022/07/31 01:26:36;;;;;;;4.68;3.92;;;17.90;99.90;;;;;;4999415;28;20113;-48
2022/07/31 01:29:12;;;;;;;4.90;3.60;;;17.80;99.90;;;;;;4986434;28;20045;-47
2022/07/31 01:32:06;;;;;;;4.50;3.83;;;17.80;99.90;;;;;;4982492;28;20045;-48
2022/07/31 01:34:54;;;;;;;5.60;3.33;;;17.80;99.90;;;;;;4997728;28;20438;-47
2022/07/31 01:37:26;;;;;;;4.80;4.30;;;17.80;99.90;;;;;;5005916;28;20100;-47
2022/07/31 01:40:01;;;;;;;6.15;4.10;;;17.80;99.90;;;;;;5000196;28;20788;-50
2022/07/31 01:42:28;;;;;;;4.18;3.72;;;17.70;99.90;;;;;;4978968;28;20417;-47
2022/07/31 01:44:57;;;;;;;7.95;3.83;;;17.80;99.90;;;;;;5000549;28;20050;-47
2022/07/31 01:47:25;;;;;;;7.80;4.60;;;17.80;99.90;;;;;;5002543;28;20041;-47
2022/07/31 01:49:53;;;;;;;4.88;3.80;;;17.80;99.90;;;;;;5000879;28;20080;-48
2022/07/31 01:52:21;;;;;;;7.68;3.70;;;17.90;99.90;;;;;;5001673;28;20571;-48
2022/07/31 01:54:48;;;;;;;5.40;3.70;;;17.80;99.90;;;;;;5000512;28;20142;-48
2022/07/31 01:57:15;;;;;;;6.75;3.95;;;17.80;99.90;;;;;;5001969;28;20056;-48
2022/07/31 01:59:42;;;;;;;4.68;3.63;;;17.90;99.90;;;;;;5001512;28;20532;-48
2022/07/31 02:02:11;;;;;;;4.43;3.63;;;17.80;99.90;;;;;;5003094;28;20085;-47
2022/07/31 02:04:38;;;;;;;3.92;3.50;;;17.90;99.90;;;;;;5004041;28;20508;-47
2022/07/31 02:07:04;;;;;;;4.18;3.75;;;17.90;99.90;;;;;;5003034;28;20041;-49
2022/07/31 02:09:32;;;;;;;4.22;3.38;;;17.90;99.90;;;;;;5000403;28;20070;-51
2022/07/31 02:11:59;;;;;;;4.93;3.60;;;17.90;99.90;;;;;;4981984;28;20034;-46
2022/07/31 02:14:26;;;;;;;3.75;3.45;;;17.90;99.90;;;;;;5000062;28;20045;-46
2022/07/31 02:16:52;;;;;;;5.07;3.58;;;18.00;99.90;;;;;;5000493;28;20491;-46
2022/07/31 02:19:20;;;;;;;6.10;3.55;;;18.00;99.90;;;;;;5002424;28;20556;-48
2022/07/31 02:21:45;;;;;;;4.15;3.58;;;18.00;99.90;;;;;;5004188;28;20378;-48
2022/07/31 02:24:11;;;;;;;7.60;3.67;;;18.00;99.90;;;;;;5000617;28;20046;-49
2022/07/31 02:26:39;;;;;;;4.30;3.88;;;17.90;99.90;;;;;;5001617;28;20171;-48
2022/07/31 02:29:07;;;;;;;4.30;3.45;;;17.90;99.90;;;;;;4985996;28;20038;-49
2022/07/31 02:31:34;;;;;;;4.40;4.00;;;17.90;99.90;;;;;;5002885;28;20045;-48
2022/07/31 02:34:00;;;;;;;3.88;3.50;;;17.80;99.90;;;;;;5003040;28;20045;-49
2022/07/31 02:36:28;;;;;;;4.63;3.85;;;17.90;99.90;;;;;;5000065;28;20088;-50
2022/07/31 02:38:54;;;;;;;;;;;18.00;99.90;;;;;;5010949;23;20060;-47
2022/07/31 02:41:21;;;;;;;6.15;4.30;;;17.90;99.90;;;;;;5042913;22;19921;-49
2022/07/31 02:43:47;;;;;;;4.28;3.88;;;17.90;99.90;;;;;;5027793;28;20041;-51
2022/07/31 02:46:14;;;;;;;5.35;4.85;;;17.90;99.90;;;;;;5023990;28;20412;-50
2022/07/31 02:48:40;;;;;;;7.10;4.15;;;17.90;99.90;;;;;;5026589;28;20054;-50
2022/07/31 02:51:06;;;;;;;5.68;4.68;;;17.90;99.90;;;;;;5026331;28;20132;-52
2022/07/31 02:53:32;;;;;;;5.38;3.97;;;17.90;99.90;;;;;;5027239;28;20121;-50
2022/07/31 02:55:59;;;;;;;4.38;3.97;;;17.90;99.90;;;;;;5025415;28;20040;-49
2022/07/31 02:58:26;;;;;;;7.28;4.32;;;17.90;99.90;;;;;;5010281;28;20041;-50
2022/07/31 03:01:03;;;;;;;4.38;4.07;;;17.90;99.90;;;;;;5027306;28;20124;-48
2022/07/31 03:03:29;;;;;;;5.28;4.00;;;17.90;99.90;;;;;;5030408;28;20362;-50
2022/07/31 03:05:55;;;;;;;5.53;3.90;;;17.90;99.90;;;;;;5028820;28;20037;-50
2022/07/31 03:08:20;;;;;;;4.85;4.05;;;17.90;99.90;;;;;;5028611;28;20041;-49
2022/07/31 03:10:46;;;;;;;4.65;4.22;;;17.90;99.90;;;;;;5026210;28;20050;-50
2022/07/31 03:13:12;;;;;;;4.93;3.63;;;17.90;99.90;;;;;;5030931;28;20040;-51
2022/07/31 03:15:40;;;;;;;5.13;3.75;;;17.80;99.90;;;;;;5031434;28;20383;-51
2022/07/31 03:18:10;;;;;;;6.25;3.80;;;17.90;99.90;;;;;;5027096;28;20069;-46
2022/07/31 03:20:37;;;;;;;5.00;3.90;;;17.90;99.90;;;;;;5032092;28;20048;-47
2022/07/31 03:23:03;;;;;;;7.50;3.83;;;17.80;99.90;;;;;;5030738;28;20056;-45
2022/07/31 03:25:31;;;;;;;4.32;3.65;;;17.90;99.90;;;;;;5027961;28;20038;-50
2022/07/31 03:27:58;;;;;;;4.90;3.90;;;17.90;99.90;;;;;;5028678;28;20132;-48
2022/07/31 03:30:24;;;;;;;3.88;3.58;;;17.90;99.90;;;;;;5030578;28;20412;-47
2022/07/31 03:32:51;;;;;;;6.88;3.70;;;17.90;99.90;;;;;;5030359;28;20038;-50
2022/07/31 03:35:18;;;;;;;5.32;3.72;;;17.90;99.90;;;;;;5030287;28;20075;-46
2022/07/31 03:37:44;;;;;;;4.07;3.53;;;18.00;99.90;;;;;;5013035;28;20045;-46
2022/07/31 03:40:10;;;;;;;3.80;3.33;;;18.00;99.90;;;;;;5033051;28;20052;-49
2022/07/31 03:42:36;;;;;;;5.10;3.30;;;17.90;99.90;;;;;;5047679;28;20603;-46
2022/07/31 03:45:04;;;;;;;4.55;3.15;;;17.90;99.90;;;;;;5047048;28;20094;-48
2022/07/31 03:47:30;;;;;;;3.40;3.10;;;17.90;99.90;;;;;;5046703;28;20084;-49
2022/07/31 03:49:56;;;;;;;5.82;3.40;;;17.90;99.90;;;;;;5048426;28;20076;-53
2022/07/31 03:52:23;;;;;;;3.47;3.25;;;17.90;99.90;;;;;;5046796;28;20057;-50
2022/07/31 03:54:48;;;;;;;3.30;2.97;;;17.90;99.90;;;;;;5049352;28;20032;-51
2022/07/31 03:57:15;;;;;;;3.92;3.10;;;17.90;99.90;;;;;;5047020;28;20504;-49
2022/07/31 03:59:42;;;;;;;4.35;3.65;;;17.90;99.90;;;;;;5050129;28;20045;-47
2022/07/31 04:02:09;;;;;;;7.53;3.42;;;17.90;99.90;;;;;;5050074;28;20049;-52
2022/07/31 04:04:36;;;;;;;4.15;3.35;;;17.90;99.90;;;;;;5030119;28;20040;-47
2022/07/31 04:07:01;;;;;;;3.72;3.30;;;17.90;99.90;;;;;;5043105;28;20094;-47
2022/07/31 04:09:28;;;;;;;4.85;3.60;;;17.90;99.90;;;;;;5047757;28;20029;-47
2022/07/31 04:11:53;;;;;;;5.22;3.05;;;17.90;99.90;;;;;;5029386;28;20049;-48
2022/07/31 04:14:19;;;;;;;5.55;3.42;;;17.90;99.90;;;;;;5028869;28;20041;-47
2022/07/31 04:16:45;;;;;;;5.35;3.58;;;18.00;99.90;;;;;;5046889;28;20044;-46
2022/07/31 04:19:10;;;;;;;3.60;3.30;;;18.00;99.90;;;;;;5046732;28;20401;-47
2022/07/31 04:21:36;;;;;;;3.97;3.50;;;18.00;99.90;;;;;;5045032;28;20171;-51
2022/07/31 04:24:02;;;;;;;4.25;3.50;;;18.00;99.90;;;;;;5049268;28;20128;-48
2022/07/31 04:26:28;;;;;;;4.93;3.10;;;18.00;99.90;;;;;;5048536;28;20069;-49
2022/07/31 04:28:53;;;;;;;6.10;3.40;;;18.10;99.90;;;;;;5048358;28;20077;-48
2022/07/31 04:31:19;;;;;;;4.93;3.33;;;18.10;99.90;;;;;;5044991;28;20033;-47
2022/07/31 04:33:45;;;;;;;3.00;2.80;;;18.10;99.90;;;;;;5043796;28;20044;-52
2022/07/31 04:36:10;;;;;;;3.60;2.90;;;18.10;99.90;;;;;;5046326;28;20400;-48
2022/07/31 04:38:36;;;;;;;4.35;3.10;;;18.10;99.90;;;;;;5037994;28;20114;-49
2022/07/31 04:41:01;;;;;;;5.05;3.20;;;18.20;99.90;;;;;;5043905;28;20053;-48
2022/07/31 04:43:27;;;;;;;3.22;2.92;;;18.20;99.90;;;;;;5048113;28;20174;-48
2022/07/31 04:45:52;;;;;;;5.07;3.05;;;18.20;99.90;;;;;;5046393;28;20128;-48
2022/07/31 04:48:18;;;;;;;4.22;3.08;;;18.30;99.90;;;;;;5046374;28;20048;-48
2022/07/31 04:50:44;;;;;;;5.65;2.95;;;18.30;99.90;;;;;;5041550;28;21187;-51
2022/07/31 04:53:09;;;;;;;4.10;3.10;;;18.30;99.90;;;;;;5047805;28;20036;-53
2022/07/31 04:55:35;;;;;;;3.83;2.90;;;18.30;99.90;;;;;;5029439;28;20045;-52
2022/07/31 04:58:00;;;;;;;3.00;2.78;;;18.30;99.90;;;;;;5048780;28;20037;-49
2022/07/31 05:00:26;;;;;;;4.65;3.15;;;18.30;99.90;;;;;;5043673;28;20091;-51
2022/07/31 05:02:51;;;;;;;8.75;3.38;;;18.30;99.90;;;;;;5045932;28;20037;-47
2022/07/31 05:05:17;;;;;;;6.25;2.92;;;18.30;99.90;;;;;;5044641;28;20056;-49
2022/07/31 05:07:43;;;;;;;4.65;3.13;;;18.30;99.90;;;;;;5043357;28;20067;-48
2022/07/31 05:10:09;;;;;;;4.10;3.25;;;18.40;99.90;;;;;;5047011;28;20037;-49
2022/07/31 05:12:34;;;;;;;4.15;2.83;;;18.50;99.90;;;;;;5046141;28;20060;-51
2022/07/31 05:15:00;;;;;;;3.72;2.70;;;18.50;99.90;;;;;;5043781;28;20029;-52
2022/07/31 05:17:26;;;;;;;6.00;2.80;;;18.50;99.90;;;;;;5043593;28;20135;-47
2022/07/31 05:19:51;;;;;;;5.70;2.60;;;18.60;99.90;;;;;;5044899;28;20041;-48
2022/07/31 05:22:17;;;;;;;4.93;2.85;;;18.70;99.90;;;;;;5047119;28;20037;-50
2022/07/31 05:24:42;;;;;;;4.70;2.80;;;18.70;99.90;;;;;;5046207;28;20451;-49
2022/07/31 05:27:09;;;;;;;4.90;2.90;;;18.80;99.90;;;;;;5047088;28;20064;-49
2022/07/31 05:29:34;;;;;;;3.95;2.78;;;18.80;99.90;;;;;;5047498;28;20040;-51
2022/07/31 05:32:00;;;;;;;3.90;2.65;;;18.90;99.90;;;;;;5045895;28;20381;-48
2022/07/31 05:34:28;;;;;;;4.30;2.90;;;19.00;99.90;;;;;;5048070;28;20441;-47
2022/07/31 05:36:54;;;;;;;;;;;19.10;99.90;;;;;;5045888;28;20037;-51
2022/07/31 05:39:20;;;;;;;2.85;2.63;;;19.20;99.90;;;;;;5045216;28;19927;-49
2022/07/31 05:41:47;;;;;;;3.60;3.10;;;19.30;99.90;;;;;;5041313;28;20445;-47
2022/07/31 05:44:13;;;;;;;4.57;3.05;;;19.40;99.90;;;;;;5046268;28;20084;-47
2022/07/31 05:46:39;;;;;;;4.95;3.03;;;19.50;99.90;;;;;;5043482;28;20077;-51
2022/07/31 05:49:05;;;;;;;5.07;3.42;;;19.70;99.90;;;;;;5046163;28;20555;-46
2022/07/31 05:51:30;;;;;;;6.75;3.17;;;19.70;99.90;;;;;;5043482;28;20033;-48
2022/07/31 05:53:56;;;;;;;3.47;2.80;;;19.90;99.90;;;;;;5047810;28;20466;-47
2022/07/31 05:56:22;;;;;;;5.78;2.83;;;20.20;99.90;;;;;;5044940;28;20427;-47
2022/07/31 05:58:47;;;;;;;3.33;2.42;;;20.30;99.90;;;;;;5044033;28;20403;-50
2022/07/31 06:01:13;;;;;;;5.03;2.88;;;20.40;99.90;;;;;;5044676;28;20043;-47
2022/07/31 06:03:39;;;;;;;3.47;2.47;;;20.40;99.90;;;;;;5030434;28;20182;-48
2022/07/31 06:06:04;;;;;;;3.65;2.40;;;20.40;99.90;;;;;;5046328;28;20505;-51
2022/07/31 06:08:30;;;;;;;4.60;2.70;;;20.50;99.90;;;;;;5045169;28;20049;-51
2022/07/31 06:10:56;;;;;;;4.72;2.90;;;20.60;99.90;;;;;;5040876;28;20060;-51
2022/07/31 06:13:26;;;;;;;4.47;2.75;;;20.50;99.90;;;;;;5040296;28;20060;-50
2022/07/31 06:15:52;;;;;;;4.47;2.83;;;20.60;99.90;;;;;;5043722;28;20507;-51
2022/07/31 06:18:18;;;;;;;6.47;3.40;;;20.60;99.90;;;;;;5043186;28;20033;-53
2022/07/31 06:20:44;;;;;;;3.75;3.08;;;20.70;99.90;;;;;;5028186;28;20041;-49
2022/07/31 06:23:10;;;;;;;7.15;3.50;;;20.80;99.90;;;;;;5043465;28;20037;-49
2022/07/31 06:25:36;;;;;;;4.50;3.58;;;20.90;99.90;;;;;;5045905;28;20128;-48
2022/07/31 06:28:01;;;;;;;6.07;3.70;;;20.90;99.90;;;;;;5026037;28;20132;-50
2022/07/31 06:30:27;;;;;;;6.18;3.42;;;21.00;99.90;;;;;;5044121;28;20503;-49
2022/07/31 06:32:53;;;;;;;5.07;3.55;;;21.00;99.90;;;;;;5042968;28;20040;-47
2022/07/31 06:35:18;;;;;;;3.90;3.40;;;21.10;99.90;;;;;;5043170;28;20048;-48
2022/07/31 06:37:44;;;;;;;4.00;3.40;;;21.20;99.90;;;;;;5050752;28;20044;-48
2022/07/31 06:40:10;;;;;;;5.80;3.40;;;21.20;99.90;;;;;;5046106;28;20052;-51
2022/07/31 06:42:36;;;;;;;4.57;3.70;;;21.30;99.90;;;;;;5046594;28;20044;-50
2022/07/31 06:45:01;;;;;;;5.07;3.92;;;21.20;99.90;;;;;;5048744;28;20492;-49
2022/07/31 06:47:27;;;;;;;4.00;3.20;;;21.20;99.90;;;;;;5032990;28;20040;-47
2022/07/31 06:49:53;;;;;;;6.63;3.67;;;21.10;99.90;;;;;;5048086;28;20098;-52
2022/07/31 06:52:19;;;;;;;4.90;3.80;;;21.10;99.90;;;;;;5047765;28;20484;-49
2022/07/31 06:54:44;;;;;;;5.15;3.90;;;21.10;99.90;;;;;;5050553;28;20042;-49
2022/07/31 06:57:11;;;;;;;5.60;3.90;;;21.10;99.90;;;;;;5050854;28;20036;-49
2022/07/31 06:59:37;;;;;;;4.82;4.13;;;21.10;99.90;;;;;;5047194;28;20147;-51
2022/07/31 07:02:02;;;;;;;4.53;4.00;;;21.10;99.90;;;;;;5046027;28;20037;-47
2022/07/31 07:04:28;;;;;;;4.90;4.30;;;21.20;99.90;;;;;;5050032;28;20481;-50
2022/07/31 07:06:54;;;;;;;6.05;4.22;;;21.20;99.90;;;;;;5048312;28;20044;-52
2022/07/31 07:09:19;;;;;;;5.32;4.10;;;21.30;99.90;;;;;;5049333;28;20037;-53
2022/07/31 07:11:46;;;;;;;5.25;4.32;;;21.50;99.90;;;;;;5027451;28;20694;-51
2022/07/31 07:14:12;;;;;;;4.65;4.25;;;21.70;99.90;;;;;;5048546;28;20101;-52
2022/07/31 07:16:38;;;;;;;6.25;4.60;;;21.70;99.90;;;;;;5049511;28;20501;-48
2022/07/31 07:19:03;;;;;;;6.32;4.65;;;21.80;99.90;;;;;;5050740;28;20038;-49
2022/07/31 07:21:29;;;;;;;5.15;4.65;;;21.90;99.90;;;;;;5031318;28;20895;-54
2022/07/31 07:23:54;;;;;;;5.55;4.57;;;22.00;99.90;;;;;;5050489;28;20134;-49
2022/07/31 07:26:20;;;;;;;6.30;4.88;;;22.10;99.90;;;;;;5047113;28;20037;-47
2022/07/31 07:28:46;;;;;;;7.05;5.05;;;22.00;99.90;;;;;;5050225;28;20052;-48
2022/07/31 07:31:11;;;;;;;5.78;5.28;;;22.10;99.90;;;;;;5048755;28;20138;-52
2022/07/31 07:33:37;;;;;;;9.82;5.70;;;22.10;99.90;;;;;;5046293;28;20038;-47
2022/07/31 07:36:03;;;;;;;6.20;5.63;;;22.10;99.90;;;;;;5030559;28;20040;-52
2022/07/31 07:38:29;;;;;;;6.50;5.80;;;22.10;99.90;;;;;;5046928;28;20128;-48
2022/07/31 07:40:54;;;;;;;6.43;5.72;;;22.10;99.90;;;;;;5047061;28;20395;-51
2022/07/31 07:43:20;;;;;;;7.45;5.35;;;22.10;99.90;;;;;;5049823;28;20180;-48
2022/07/31 07:45:45;;;;;;;6.70;5.38;;;22.00;99.90;;;;;;5045341;28;20068;-48
2022/07/31 07:48:11;;;;;;;6.55;5.95;;;22.10;99.90;;;;;;5047586;28;20175;-49
2022/07/31 07:50:37;;;;;;;8.00;6.03;;;22.10;99.90;;;;;;5046733;28;20044;-47
2022/07/31 07:53:02;;;;;;;9.02;5.93;;;22.00;99.90;;;;;;5048520;28;20447;-48
2022/07/31 07:55:28;;;;;;;6.97;6.18;;;22.10;99.90;;;;;;5046391;28;20045;-49
2022/07/31 07:57:54;;;;;;;8.25;5.60;;;22.10;99.90;;;;;;5045854;28;20041;-52
2022/07/31 08:00:20;;;;;;;6.20;5.68;;;22.10;99.90;;;;;;5046224;28;20127;-49
2022/07/31 08:02:47;;;;;;;9.52;6.65;;;22.00;99.90;;;;;;5030523;28;20077;-48
2022/07/31 08:05:13;;;;;;;;;;;22.00;99.90;;;;;;5043642;28;20041;-48
2022/07/31 08:07:40;;;;;;;7.05;6.35;;;22.00;99.90;;;;;;5046887;28;19928;-48
2022/07/31 08:10:06;;;;;;;8.98;5.90;;;22.10;99.90;;;;;;5045698;28;20507;-47
2022/07/31 08:12:33;;;;;;;9.35;6.28;;;22.10;99.90;;;;;;5030891;28;20048;-49
2022/07/31 08:14:58;;;;;;;7.07;6.40;;;22.20;99.90;;;;;;5045715;28;20715;-51
2022/07/31 08:17:24;;;;;;;10.95;7.30;;;22.20;99.90;;;;;;5047304;28;20407;-48
2022/07/31 08:19:50;;;;;;;7.35;6.63;;;22.10;99.90;;;;;;5029580;28;20546;-47
2022/07/31 08:22:16;;;;;;;10.10;7.60;;;22.10;99.90;;;;;;5046425;28;20049;-49
2022/07/31 08:24:42;;;;;;;8.90;7.35;;;22.10;99.90;;;;;;5048814;28;20045;-47
2022/07/31 08:27:23;;;;;;;7.40;6.55;;;22.10;99.90;;;;;;5045718;28;20045;-50
2022/07/31 08:29:50;;;;;;;7.68;6.50;;;22.10;99.90;;;;;;5047119;28;20434;-48
2022/07/31 08:32:16;;;;;;;;;;;22.10;99.90;;;;;;5039804;28;20044;-52
2022/07/31 08:34:42;;;;;;;9.35;6.40;;;22.20;99.90;;;;;;5044569;28;19921;-48
2022/07/31 08:37:08;;;;;;;7.78;6.97;;;22.40;99.90;;;;;;5044402;28;20484;-50
2022/07/31 08:39:34;;;;;;;8.45;6.50;;;22.60;99.90;;;;;;5046129;28;20093;-52
2022/07/31 08:42:04;;;;;;;7.95;6.63;;;22.90;99.90;;;;;;5045031;28;20047;-48
2022/07/31 08:44:30;;;;;;;8.52;6.75;;;23.00;99.90;;;;;;5047822;28;20047;-47
2022/07/31 08:46:56;;;;;;;8.10;6.20;;;23.10;99.90;;;;;;5042223;28;20037;-50
2022/07/31 08:49:24;;;;;;;5.85;5.22;;;23.40;99.90;;;;;;5044716;28;20481;-47
2022/07/31 08:51:52;;;;;;;6.70;5.72;;;23.60;99.90;;;;;;5051397;28;20049;-48
2022/07/31 08:54:19;;;;;;;6.93;5.57;;;23.80;99.90;;;;;;5039495;28;20072;-49
2022/07/31 08:56:45;;;;;;;8.00;5.43;;;23.90;99.90;;;;;;5030169;28;20381;-49
2022/07/31 08:59:11;;;;;;;7.47;6.10;;;23.90;99.90;;;;;;5049915;28;20044;-48
2022/07/31 09:01:37;;;;;;;6.18;5.57;;;24.00;99.90;;;;;;5043140;28;20041;-48
2022/07/31 09:04:03;;;;;;;6.38;5.60;;;23.90;99.90;;;;;;5045270;28;20083;-48
2022/07/31 09:06:29;;;;;;;6.82;4.95;;;24.00;99.90;;;;;;5043331;28;20051;-49
2022/07/31 09:08:55;;;;;;;6.82;5.20;;;23.90;99.90;;;;;;5047788;28;20044;-52
2022/07/31 09:11:21;;;;;;;5.47;4.70;;;23.80;99.90;;;;;;5047661;28;20591;-48
2022/07/31 09:14:00;;;;;;;5.47;4.57;;;23.80;99.90;;;;;;5010062;28;20052;-47
2022/07/31 09:16:26;;;;;;;5.72;5.15;;;23.60;99.90;;;;;;5045991;28;20047;-50
2022/07/31 09:19:01;;;;;;;6.00;5.10;;;23.50;99.90;;;;;;5043444;28;20041;-48
2022/07/31 09:21:41;;;;;;;7.10;5.05;;;23.40;99.90;;;;;;5039689;28;20085;-47
2022/07/31 09:24:12;;;;;;;5.78;5.18;;;23.30;99.90;;;;;;5021396;28;20045;-48
2022/07/31 09:26:39;;;;;;;5.55;5.05;;;23.20;99.90;;;;;;5043152;28;20037;-48
2022/07/31 09:29:10;;;;;;;5.60;5.10;;;23.00;99.90;;;;;;5038661;28;20544;-48
2022/07/31 09:31:36;;;;;;;6.97;5.28;;;23.00;99.90;;;;;;5050174;28;20063;-48
2022/07/31 09:34:04;;;;;;;6.22;5.30;;;22.80;99.90;;;;;;5050616;28;20033;-53
2022/07/31 09:36:31;;;;;;;6.68;5.22;;;22.80;99.90;;;;;;5036406;28;20381;-48
2022/07/31 09:38:58;;;;;;;6.93;5.60;;;22.60;99.90;;;;;;5049804;28;20052;-50
2022/07/31 09:41:25;;;;;;;6.35;5.18;;;22.50;99.90;;;;;;5046822;28;20134;-49
2022/07/31 09:44:02;;;;;;;6.35;5.82;;;22.40;99.90;;;;;;5050115;28;20652;-49
2022/07/31 09:46:44;;;;;;;6.80;6.07;;;22.40;99.90;;;;;;5027889;28;20045;-49
2022/07/31 09:49:10;;;;;;;7.93;6.22;;;22.40;99.90;;;;;;5044805;28;20116;-50
2022/07/31 09:51:43;;;;;;;7.93;6.75;;;22.40;99.90;;;;;;5044433;28;20132;-48
2022/07/31 09:54:24;;;;;;;7.18;6.47;;;22.50;99.90;;;;;;5047140;28;20037;-49
2022/07/31 09:56:50;;;;;;;8.93;6.43;;;22.50;99.90;;;;;;5045353;28;20041;-50
2022/07/31 09:59:16;;;;;;;9.50;6.65;;;22.60;99.90;;;;;;5029635;28;20040;-48
2022/07/31 10:01:44;;;;;;;7.28;6.57;;;22.60;99.90;;;;;;5043635;28;20040;-50
2022/07/31 10:04:10;;;;;;;8.48;6.78;;;22.70;99.90;;;;;;5034398;28;20037;-47
2022/07/31 10:06:37;;;;;;;8.00;6.57;;;22.70;99.90;;;;;;5034528;28;20103;-48
2022/07/31 10:09:05;;;;;;;7.65;6.90;;;22.80;99.90;;;;;;5036595;28;20103;-48
2022/07/31 10:11:31;;;;;;;7.78;7.07;;;22.80;99.90;;;;;;5034340;28;20039;-48
2022/07/31 10:14:01;;;;;;;10.52;7.78;;;22.90;99.90;;;;;;5033701;28;20041;-47
2022/07/31 10:16:33;;;;;;;8.23;7.47;;;22.90;99.90;;;;;;5033947;28;20041;-53
2022/07/31 10:19:00;;;;;;;11.23;7.55;;;23.00;99.90;;;;;;5041122;28;20052;-48
2022/07/31 10:21:38;;;;;;;11.05;8.50;;;23.10;99.90;;;;;;5037376;28;20406;-48
2022/07/31 10:24:05;;;;;;;8.85;8.05;;;23.20;99.90;;;;;;5035136;28;20041;-47
2022/07/31 10:26:32;;;;;;;10.38;7.50;;;23.30;99.90;;;;;;5037514;28;20037;-50
2022/07/31 10:28:58;;;;;;;8.80;7.90;;;23.50;99.90;;;;;;5016145;28;20072;-50
2022/07/31 10:31:24;;;;;;;9.73;8.75;;;23.60;99.90;;;;;;5040812;28;20044;-49
2022/07/31 10:33:51;;;;;;;12.23;10.90;;;23.60;99.90;;;;;;5034632;28;20049;-49
2022/07/31 10:36:31;;;;;;;12.18;10.88;;;23.40;99.90;;;;;;5034512;28;20039;-50
2022/07/31 10:39:28;;;;;;;12.77;9.45;;;23.50;99.90;;;;;;5036230;28;20102;-48
2022/07/31 10:42:18;;;;;;;9.95;9.07;;;23.50;99.90;;;;;;5036032;28;20876;-49
2022/07/31 10:44:49;;;;;;;10.52;9.63;;;23.50;99.90;;;;;;5036007;28;20485;-48
2022/07/31 10:47:16;;;;;;;10.95;10.05;;;23.30;99.90;;;;;;5034988;28;20503;-49
2022/07/31 10:49:45;;;;;;;10.98;9.90;;;23.30;99.90;;;;;;5044155;28;20041;-48
2022/07/31 10:52:10;;;;;;;12.07;10.73;;;23.40;99.90;;;;;;5043343;28;20053;-49
2022/07/31 10:54:45;;;;;;;14.77;10.55;;;23.40;99.90;;;;;;5047277;28;20136;-51
2022/07/31 10:57:25;;;;;;;10.80;9.73;;;23.50;99.90;;;;;;5044664;28;20481;-48
2022/07/31 10:59:51;;;;;;;11.02;9.88;;;23.60;99.90;;;;;;5047753;28;20049;-49
2022/07/31 11:02:33;;;;;;;10.68;9.63;;;23.70;99.90;;;;;;5041544;28;20366;-47
2022/07/31 11:05:09;;;;;;;11.60;9.88;;;23.70;99.90;;;;;;5044205;28;20080;-52
2022/07/31 11:07:35;;;;;;;11.30;10.27;;;23.70;99.90;;;;;;5045610;28;20455;-50
2022/07/31 11:10:19;;;;;;;11.52;10.43;;;23.60;99.90;;;;;;5025387;28;20127;-54
2022/07/31 11:12:45;;;;;;;11.93;10.93;;;23.60;99.90;;;;;;5048521;28;20119;-48
2022/07/31 11:15:19;;;;;;;12.17;9.37;;;23.70;99.90;;;;;;5045500;28;20091;-49
2022/07/31 11:17:45;;;;;;;10.80;9.70;;;23.60;99.90;;;;;;5038409;28;20052;-49
2022/07/31 11:20:25;;;;;;;9.93;8.90;;;23.40;99.90;;;;;;5044789;28;20492;-49
2022/07/31 11:23:02;;;;;;;10.23;9.25;;;23.40;99.90;;;;;;5050282;28;20041;-53
2022/07/31 11:25:30;;;;;;;10.50;9.02;;;23.40;99.90;;;;;;5046945;28;20552;-51
2022/07/31 11:27:57;;;;;;;14.00;8.77;;;23.40;99.90;;;;;;5044660;28;20037;-51
2022/07/31 11:30:23;;;;;;;10.98;9.98;;;23.20;99.90;;;;;;5052649;28;20041;-53
2022/07/31 11:32:52;;;;;;;11.07;9.98;;;23.20;99.90;;;;;;5048187;28;20115;-49
2022/07/31 11:35:30;;;;;;;12.43;10.88;;;23.00;99.90;;;;;;5047947;28;20037;-52
2022/07/31 11:37:57;;;;;;;13.25;11.85;;;22.90;99.90;;;;;;5040914;28;20132;-52
2022/07/31 11:40:24;;;;;;;12.90;11.80;;;22.90;99.90;;;;;;5045881;28;20048;-49
2022/07/31 11:42:49;;;;;;;13.52;12.30;;;22.80;99.90;;;;;;5048246;28;20128;-51
2022/07/31 11:45:16;;;;;;;14.45;13.05;;;22.60;99.90;;;;;;5045245;28;20667;-51
2022/07/31 11:47:44;;;;;;;14.45;13.32;;;22.50;99.90;;;;;;5048856;28;22495;-54
2022/07/31 11:50:10;;;;;;;14.70;13.35;;;22.40;99.90;;;;;;5048505;28;20037;-52
2022/07/31 11:52:36;;;;;;;14.45;13.15;;;22.20;99.90;;;;;;5045648;28;20056;-54
2022/07/31 11:55:22;;;;;;;15.93;14.13;;;22.00;99.90;;;;;;5037457;28;20052;-53
2022/07/31 11:57:47;;;;;;;15.75;13.75;;;21.70;99.90;;;;;;5046261;28;20049;-54
2022/07/31 12:00:15;;;;;;;15.40;13.27;;;21.60;99.90;;;;;;5041579;28;20040;-53
2022/07/31 12:02:47;;;;;;;;;;;21.50;99.90;;;;;;5035136;28;20038;-52
2022/07/31 12:05:13;;;;;;;16.25;14.57;;;21.30;99.90;;;;;;5037310;28;20350;-50
2022/07/31 12:07:45;;;;;;;17.95;14.32;;;21.10;99.90;;;;;;5054436;28;20476;-53
2022/07/31 12:10:12;;;;;;;16.30;14.85;;;21.00;99.90;;;;;;5037510;28;20551;-50
2022/07/31 12:12:39;;;;;;;17.50;15.82;;;21.00;99.90;;;;;;5043782;28;20132;-54
2022/07/31 12:15:21;;;;;;;17.42;15.82;;;20.90;99.90;;;;;;5029398;28;20114;-49
2022/07/31 12:17:47;;;;;;;16.55;15.00;;;20.80;99.90;;;;;;5052904;28;20068;-53
2022/07/31 12:20:13;;;;;;;17.33;15.63;;;20.80;99.90;;;;;;5052720;28;20083;-51
2022/07/31 12:22:40;;;;;;;18.48;16.77;;;20.90;99.90;;;;;;5034667;28;20049;-51
2022/07/31 12:25:08;;;;;;;17.87;16.27;;;20.80;99.90;;;;;;5039782;28;20370;-50
2022/07/31 12:27:35;;;;;;;16.40;14.70;;;20.70;99.90;;;;;;5018306;28;20079;-50
2022/07/31 12:30:12;;;;;;;16.77;15.25;;;20.60;99.90;;;;;;5047297;28;20133;-52
2022/07/31 12:32:37;;;;;;;16.60;15.00;;;20.60;99.90;;;;;;5038171;28;20080;-53
2022/07/31 12:35:03;;;;;;;17.55;15.73;;;20.50;99.90;;;;;;5040221;28;20454;-50
2022/07/31 12:37:29;;;;;;;17.60;15.93;;;20.40;99.90;;;;;;5039897;28;20041;-53
2022/07/31 12:39:55;;;;;;;17.42;15.88;;;20.50;99.90;;;;;;5038177;28;20421;-49
2022/07/31 12:42:26;;;;;;;19.65;17.42;;;20.70;99.90;;;;;;5040609;28;20120;-50
2022/07/31 12:44:54;;;;;;;19.30;17.00;;;20.60;99.90;;;;;;5047281;28;20098;-48
2022/07/31 12:47:25;;;;;;;18.25;16.38;;;20.60;99.90;;;;;;5045359;28;20033;-51